Time,TemperatureF,DewpointF,PressureIn,WindDirection,WindDirectionDegrees,WindSpeedMPH,WindSpeedGustMPH,Humidity,HourlyPrecipIn,Conditions,Clouds,dailyrainin,SoftwareType,DateUTC
2013-04-19 00:09:00,50.4,45.8,30.06,ESE,112,2.7,-999.0,84,-99.99,,,0.00,Acu-Link.com,2013-04-19 04:09:00,
2013-04-19 00:24:00,50.4,46.1,30.06,SW,225,1.7,-999.0,85,-99.99,,,0.00,Acu-Link.com,2013-04-19 04:24:00,
2013-04-19 00:39:00,50.4,46.7,30.06,South,180,1.1,-999.0,87,-99.99,,,0.00,Acu-Link.com,2013-04-19 04:39:00,
2013-04-19 00:55:00,50.5,47.7,30.06,SSW,202,1.7,-999.0,90,-99.99,,,0.00,Acu-Link.com,2013-04-19 04:55:00,
2013-04-19 01:10:00,50.7,48.5,30.06,West,270,2.7,-999.0,92,-99.99,,,0.00,Acu-Link.com,2013-04-19 05:10:00,
2013-04-19 01:25:00,50.9,49.2,30.04,South,180,2.2,-999.0,94,-99.99,,,0.00,Acu-Link.com,2013-04-19 05:25:00,
2013-04-19 01:40:00,50.9,49.5,30.04,WSW,247,2.7,-999.0,95,-99.99,,,0.00,Acu-Link.com,2013-04-19 05:40:00,
2013-04-19 01:56:00,50.9,49.8,30.03,West,270,1.7,-999.0,96,-99.99,,,0.00,Acu-Link.com,2013-04-19 05:56:00,
2013-04-19 02:11:00,50.9,49.8,30.01,SW,225,2.2,-999.0,96,-99.99,,,0.00,Acu-Link.com,2013-04-19 06:11:00,
2013-04-19 02:26:00,50.7,49.6,30.01,West,270,0.0,-999.0,96,-99.99,,,0.00,Acu-Link.com,2013-04-19 06:26:00,
2013-04-19 02:41:00,50.7,49.9,29.99,South,180,1.1,-999.0,97,-99.99,,,0.00,Acu-Link.com,2013-04-19 06:41:00,
2013-04-19 02:56:00,50.5,50.0,29.99,SSW,202,0.0,-999.0,98,-99.99,,,0.00,Acu-Link.com,2013-04-19 06:56:00,
2013-04-19 03:12:00,50.5,50.2,29.97,SSW,202,1.1,-999.0,99,-99.99,,,0.00,Acu-Link.com,2013-04-19 07:12:00,
2013-04-19 03:27:00,50.7,50.4,29.97,SSE,157,1.7,-999.0,99,-99.99,,,0.00,Acu-Link.com,2013-04-19 07:27:00,
2013-04-19 03:42:00,50.9,50.6,29.96,SSW,202,1.7,-999.0,99,-99.99,,,0.00,Acu-Link.com,2013-04-19 07:42:00,
2013-04-19 03:57:00,51.3,51.0,29.97,SSW,202,0.0,-999.0,99,-99.99,,,0.00,Acu-Link.com,2013-04-19 07:57:00,
2013-04-19 04:12:00,51.4,51.1,29.96,SSW,202,1.1,-999.0,99,-99.99,,,0.00,Acu-Link.com,2013-04-19 08:12:00,
2013-04-19 04:28:00,51.6,51.3,29.97,WSW,247,1.1,-999.0,99,-99.99,,,0.00,Acu-Link.com,2013-04-19 08:28:00,
2013-04-19 04:43:00,51.8,51.5,29.97,SSE,157,0.0,-999.0,99,-99.99,,,0.00,Acu-Link.com,2013-04-19 08:43:00,
2013-04-19 04:58:00,52.2,51.9,29.95,SSW,202,1.1,-999.0,99,-99.99,,,0.00,Acu-Link.com,2013-04-19 08:58:00,
2013-04-19 05:13:00,52.5,52.2,29.94,SSW,202,0.0,-999.0,99,-99.99,,,0.00,Acu-Link.com,2013-04-19 09:13:00,
2013-04-19 05:28:00,52.9,52.6,29.94,SSW,202,0.0,-999.0,99,-99.99,,,0.00,Acu-Link.com,2013-04-19 09:28:00,
2013-04-19 05:44:00,53.4,53.1,29.93,NE,45,0.0,-999.0,99,-99.99,,,0.00,Acu-Link.com,2013-04-19 09:44:00,
2013-04-19 05:59:00,53.8,53.5,29.93,SSW,202,3.2,-999.0,99,-99.99,,,0.00,Acu-Link.com,2013-04-19 09:59:00,
2013-04-19 06:14:00,53.8,53.5,29.93,ESE,112,1.7,-999.0,99,-99.99,,,0.00,Acu-Link.com,2013-04-19 10:14:00,
2013-04-19 06:29:00,55.0,54.7,29.94,ESE,112,4.2,-999.0,99,-99.99,,,0.00,Acu-Link.com,2013-04-19 10:29:00,
2013-04-19 06:44:00,56.3,56.0,29.94,South,180,1.7,-999.0,99,-99.99,,,0.00,Acu-Link.com,2013-04-19 10:44:00,
2013-04-19 07:00:00,57.0,56.7,29.94,West,270,3.2,-999.0,99,-99.99,,,0.00,Acu-Link.com,2013-04-19 11:00:00,
2013-04-19 07:15:00,57.4,57.1,29.94,ESE,112,2.2,-999.0,99,-99.99,,,0.00,Acu-Link.com,2013-04-19 11:15:00,
2013-04-19 07:30:00,58.1,57.8,29.94,SW,225,4.2,-999.0,99,-99.99,,,0.00,Acu-Link.com,2013-04-19 11:30:00,
2013-04-19 07:45:00,59.2,58.1,29.92,SW,225,6.3,-999.0,96,-99.99,,,0.00,Acu-Link.com,2013-04-19 11:45:00,
2013-04-19 08:01:00,60.6,58.3,29.92,SW,225,4.7,-999.0,92,-99.99,,,0.00,Acu-Link.com,2013-04-19 12:01:00,
2013-04-19 08:16:00,61.3,58.6,29.92,South,180,4.7,-999.0,91,-99.99,,,0.00,Acu-Link.com,2013-04-19 12:16:00,
2013-04-19 08:31:00,62.2,58.9,29.91,SSW,202,2.7,-999.0,89,-99.99,,,0.00,Acu-Link.com,2013-04-19 12:31:00,
2013-04-19 08:46:00,62.6,59.0,29.91,SW,225,4.7,-999.0,88,-99.99,,,0.00,Acu-Link.com,2013-04-19 12:46:00,
2013-04-19 09:01:00,63.3,59.4,29.92,South,180,4.2,-999.0,87,-99.99,,,0.00,Acu-Link.com,2013-04-19 13:01:00,
2013-04-19 09:17:00,63.0,59.1,29.93,SSW,202,15.0,-999.0,87,-99.99,,,0.00,Acu-Link.com,2013-04-19 13:17:00,
2013-04-19 09:32:00,64.0,59.1,29.90,SW,225,7.8,-999.0,84,-99.99,,,0.00,Acu-Link.com,2013-04-19 13:32:00,
2013-04-19 09:47:00,65.3,59.7,29.90,SW,225,3.7,-999.0,82,-99.99,,,0.00,Acu-Link.com,2013-04-19 13:47:00,
2013-04-19 10:02:00,66.0,59.6,29.88,SW,225,6.3,-999.0,80,-99.99,,,0.00,Acu-Link.com,2013-04-19 14:02:00,
2013-04-19 10:17:00,67.1,60.0,29.88,South,180,4.7,-999.0,78,-99.99,,,0.00,Acu-Link.com,2013-04-19 14:17:00,
2013-04-19 10:33:00,67.1,59.6,29.89,West,270,8.9,-999.0,77,-99.99,,,0.00,Acu-Link.com,2013-04-19 14:33:00,
2013-04-19 10:48:00,67.5,60.0,29.88,SSW,202,3.7,-999.0,77,-99.99,,,0.00,Acu-Link.com,2013-04-19 14:48:00,
2013-04-19 11:03:00,67.3,60.2,29.88,SSW,202,8.3,-999.0,78,-99.99,,,0.00,Acu-Link.com,2013-04-19 15:03:00,
2013-04-19 11:18:00,66.4,60.0,29.86,SW,225,6.3,-999.0,80,-99.99,,,0.00,Acu-Link.com,2013-04-19 15:18:00,
2013-04-19 11:33:00,68.0,60.1,29.87,SSW,202,4.2,-999.0,76,-99.99,,,0.00,Acu-Link.com,2013-04-19 15:33:00,
2013-04-19 11:49:00,68.7,60.1,29.85,SW,225,8.3,-999.0,74,-99.99,,,0.00,Acu-Link.com,2013-04-19 15:49:00,
2013-04-19 12:04:00,70.9,61.0,29.84,SSW,202,10.4,-999.0,71,-99.99,,,0.00,Acu-Link.com,2013-04-19 16:04:00,
2013-04-19 12:19:00,70.7,61.2,29.83,SSW,202,6.8,-999.0,72,-99.99,,,0.00,Acu-Link.com,2013-04-19 16:19:00,
2013-04-19 12:34:00,69.8,60.7,29.82,SSW,202,6.3,-999.0,73,-99.99,,,0.00,Acu-Link.com,2013-04-19 16:34:00,
2013-04-19 12:50:00,70.0,60.5,29.82,SSE,157,7.3,-999.0,72,-99.99,,,0.00,Acu-Link.com,2013-04-19 16:50:00,
2013-04-19 13:05:00,70.0,60.2,29.82,West,270,10.4,-999.0,71,-99.99,,,0.00,Acu-Link.com,2013-04-19 17:05:00,
2013-04-19 13:20:00,71.1,60.4,29.80,SW,225,7.8,-999.0,69,-99.99,,,0.00,Acu-Link.com,2013-04-19 17:20:00,
2013-04-19 13:35:00,72.1,60.1,29.80,South,180,6.8,-999.0,66,-99.99,,,0.00,Acu-Link.com,2013-04-19 17:35:00,
2013-04-19 13:50:00,70.3,59.6,29.79,SSW,202,7.3,-999.0,69,-99.99,,,0.00,Acu-Link.com,2013-04-19 17:50:00,
2013-04-19 14:06:00,71.8,60.7,29.78,SSE,157,2.7,-999.0,68,-99.99,,,0.00,Acu-Link.com,2013-04-19 18:06:00,
2013-04-19 14:21:00,71.8,60.2,29.78,WSW,247,6.8,-999.0,67,-99.99,,,0.00,Acu-Link.com,2013-04-19 18:21:00,
2013-04-19 14:36:00,72.0,60.8,29.77,ENE,67,4.7,-999.0,68,-99.99,,,0.00,Acu-Link.com,2013-04-19 18:36:00,
2013-04-19 14:51:00,71.2,60.5,29.76,SSW,202,5.8,-999.0,69,-99.99,,,0.00,Acu-Link.com,2013-04-19 18:51:00,
2013-04-19 15:06:00,70.0,60.2,29.75,SW,225,6.8,-999.0,71,-99.99,,,0.00,Acu-Link.com,2013-04-19 19:06:00,
2013-04-19 15:22:00,69.4,60.7,29.75,SSW,202,8.3,-999.0,74,-99.99,,,0.00,Acu-Link.com,2013-04-19 19:22:00,
2013-04-19 15:37:00,68.5,61.4,29.74,SSW,202,3.7,-999.0,78,-99.99,,,0.00,Acu-Link.com,2013-04-19 19:37:00,
2013-04-19 15:52:00,66.9,62.2,29.74,SW,225,6.3,-999.0,85,-99.99,,,0.00,Acu-Link.com,2013-04-19 19:52:00,
2013-04-19 16:07:00,65.3,62.6,29.74,South,180,4.2,-999.0,91,-99.99,,,0.00,Acu-Link.com,2013-04-19 20:07:00,
2013-04-19 16:22:00,64.8,63.0,29.72,SSW,202,3.2,-999.0,94,-99.99,,,0.00,Acu-Link.com,2013-04-19 20:22:00,
2013-04-19 16:38:00,65.1,63.0,29.72,NE,45,2.7,-999.0,93,-99.99,,,0.00,Acu-Link.com,2013-04-19 20:38:00,
2013-04-19 16:53:00,65.1,63.0,29.71,WSW,247,2.7,-999.0,93,-99.99,,,0.00,Acu-Link.com,2013-04-19 20:53:00,
2013-04-19 17:08:00,65.1,63.0,29.69,East,90,1.7,-999.0,93,-99.99,,,0.00,Acu-Link.com,2013-04-19 21:08:00,
2013-04-19 17:23:00,65.3,63.2,29.70,ESE,112,6.8,-999.0,93,-99.99,,,0.00,Acu-Link.com,2013-04-19 21:23:00,
2013-04-19 17:39:00,65.3,62.9,29.68,SE,135,2.2,-999.0,92,-99.99,,,0.00,Acu-Link.com,2013-04-19 21:39:00,
2013-04-19 17:54:00,64.8,62.7,29.67,SSW,202,3.7,-999.0,93,-99.99,,,0.00,Acu-Link.com,2013-04-19 21:54:00,
2013-04-19 18:09:00,64.6,62.5,29.68,SSW,202,6.8,-999.0,93,-99.99,,,0.00,Acu-Link.com,2013-04-19 22:09:00,
2013-04-19 18:24:00,63.7,61.9,29.68,SE,135,4.7,-999.0,94,-99.99,,,0.00,Acu-Link.com,2013-04-19 22:24:00,
2013-04-19 18:39:00,63.3,61.5,29.67,SE,135,4.7,-999.0,94,-99.99,,,0.00,Acu-Link.com,2013-04-19 22:39:00,
2013-04-19 18:55:00,63.3,61.5,29.66,SSW,202,3.7,-999.0,94,-99.99,,,0.00,Acu-Link.com,2013-04-19 22:55:00,
2013-04-19 19:10:00,63.0,61.2,29.66,WSW,247,5.8,-999.0,94,-99.99,,,0.00,Acu-Link.com,2013-04-19 23:10:00,
2013-04-19 19:25:00,62.6,61.1,29.66,SW,225,9.4,-999.0,95,-99.99,,,0.00,Acu-Link.com,2013-04-19 23:25:00,
2013-04-19 19:40:00,62.2,60.7,29.66,SSW,202,5.3,-999.0,95,-99.99,,,0.00,Acu-Link.com,2013-04-19 23:40:00,
2013-04-19 19:55:00,62.2,60.7,29.68,South,180,6.3,-999.0,95,-99.99,,,0.00,Acu-Link.com,2013-04-19 23:55:00,
2013-04-19 20:11:00,62.2,61.0,29.66,West,270,6.8,-999.0,96,-99.99,,,0.00,Acu-Link.com,2013-04-20 00:11:00,
2013-04-19 20:26:00,61.9,60.7,29.67,SW,225,2.2,-999.0,96,-99.99,,,0.00,Acu-Link.com,2013-04-20 00:26:00,
2013-04-19 20:41:00,61.9,61.0,29.66,West,270,7.8,-999.0,97,-99.99,,,0.00,Acu-Link.com,2013-04-20 00:41:00,
2013-04-19 20:57:00,61.5,60.9,29.65,SSW,202,3.7,-999.0,98,-99.99,,,0.00,Acu-Link.com,2013-04-20 00:57:00,
2013-04-19 21:12:00,61.7,61.1,29.64,WSW,247,5.8,-999.0,98,-99.99,,,0.00,Acu-Link.com,2013-04-20 01:12:00,
2013-04-19 21:27:00,61.9,61.3,29.64,SW,225,6.3,-999.0,98,-99.99,,,0.00,Acu-Link.com,2013-04-20 01:27:00,
2013-04-19 21:42:00,62.2,61.6,29.64,West,270,6.3,-999.0,98,-99.99,,,0.00,Acu-Link.com,2013-04-20 01:42:00,
2013-04-19 21:57:00,63.0,62.4,29.64,SW,225,8.9,-999.0,98,-99.99,,,0.00,Acu-Link.com,2013-04-20 01:57:00,
2013-04-19 22:13:00,63.3,62.7,29.62,SW,225,4.7,-999.0,98,-99.99,,,0.00,Acu-Link.com,2013-04-20 02:13:00,
2013-04-19 22:28:00,63.5,62.9,29.60,SSW,202,4.2,-999.0,98,-99.99,,,0.00,Acu-Link.com,2013-04-20 02:28:00,
2013-04-19 22:43:00,63.9,63.0,29.61,South,180,7.3,-999.0,97,-99.99,,,0.00,Acu-Link.com,2013-04-20 02:43:00,
2013-04-19 22:58:00,63.9,63.0,29.60,WSW,247,17.1,-999.0,97,-99.99,,,0.00,Acu-Link.com,2013-04-20 02:58:00,
2013-04-19 23:13:00,63.9,63.0,29.60,SW,225,5.8,-999.0,97,-99.99,,,0.00,Acu-Link.com,2013-04-20 03:13:00,
2013-04-19 23:29:00,63.9,63.0,29.59,East,90,4.7,-999.0,97,-99.99,,,0.00,Acu-Link.com,2013-04-20 03:29:00,
2013-04-19 23:44:00,63.7,62.8,29.60,South,180,5.8,-999.0,97,-99.99,,,0.00,Acu-Link.com,2013-04-20 03:44:00,
2013-04-19 23:59:00,63.5,62.6,29.58,WSW,247,6.8,-999.0,97,-99.99,,,0.00,Acu-Link.com,2013-04-20 03:59:00,